sensor_id;sensor_type;location;lat;lon;timestamp;P1;durP1;ratioP1;P2;durP2;ratioP2
19739;SDS011;10027;51.066;13.768;2023-02-28T00:00:40;4.83;;;2.80;;
19739;SDS011;10027;51.066;13.768;2023-02-28T00:03:09;3.67;;;2.37;;
19739;SDS011;10027;51.066;13.768;2023-02-28T00:05:36;5.47;;;2.40;;
19739;SDS011;10027;51.066;13.768;2023-02-28T00:08:03;6.43;;;2.60;;
19739;SDS011;10027;51.066;13.768;2023-02-28T00:10:30;5.83;;;3.00;;
19739;SDS011;10027;51.066;13.768;2023-02-28T00:13:02;4.37;;;2.60;;
19739;SDS011;10027;51.066;13.768;2023-02-28T00:15:30;5.27;;;2.47;;
19739;SDS011;10027;51.066;13.768;2023-02-28T00:17:58;2.90;;;2.23;;
19739;SDS011;10027;51.066;13.768;2023-02-28T00:20:25;4.37;;;2.20;;
19739;SDS011;10027;51.066;13.768;2023-02-28T00:22:53;5.43;;;2.77;;
19739;SDS011;10027;51.066;13.768;2023-02-28T00:25:21;3.80;;;2.23;;
19739;SDS011;10027;51.066;13.768;2023-02-28T00:27:49;9.40;;;2.83;;
19739;SDS011;10027;51.066;13.768;2023-02-28T00:30:20;5.07;;;2.47;;
19739;SDS011;10027;51.066;13.768;2023-02-28T00:32:48;4.93;;;2.70;;
19739;SDS011;10027;51.066;13.768;2023-02-28T00:35:15;3.73;;;2.37;;
19739;SDS011;10027;51.066;13.768;2023-02-28T00:37:42;3.73;;;2.53;;
19739;SDS011;10027;51.066;13.768;2023-02-28T00:40:09;3.97;;;2.37;;
19739;SDS011;10027;51.066;13.768;2023-02-28T00:42:38;4.27;;;2.70;;
19739;SDS011;10027;51.066;13.768;2023-02-28T00:45:05;5.10;;;2.50;;
19739;SDS011;10027;51.066;13.768;2023-02-28T00:47:32;5.07;;;2.13;;
19739;SDS011;10027;51.066;13.768;2023-02-28T00:49:59;4.40;;;2.43;;
19739;SDS011;10027;51.066;13.768;2023-02-28T00:52:27;5.33;;;2.50;;
19739;SDS011;10027;51.066;13.768;2023-02-28T00:54:54;4.43;;;2.57;;
19739;SDS011;10027;51.066;13.768;2023-02-28T00:57:21;4.13;;;2.80;;
19739;SDS011;10027;51.066;13.768;2023-02-28T00:59:48;4.27;;;2.53;;
19739;SDS011;10027;51.066;13.768;2023-02-28T01:02:15;5.83;;;2.93;;
19739;SDS011;10027;51.066;13.768;2023-02-28T01:04:44;6.53;;;2.90;;
19739;SDS011;10027;51.066;13.768;2023-02-28T01:07:11;4.67;;;2.60;;
19739;SDS011;10027;51.066;13.768;2023-02-28T01:09:38;4.43;;;3.00;;
19739;SDS011;10027;51.066;13.768;2023-02-28T01:12:06;4.60;;;2.40;;
19739;SDS011;10027;51.066;13.768;2023-02-28T01:14:33;3.43;;;2.30;;
19739;SDS011;10027;51.066;13.768;2023-02-28T01:17:00;5.40;;;2.73;;
19739;SDS011;10027;51.066;13.768;2023-02-28T01:19:27;6.03;;;2.70;;
19739;SDS011;10027;51.066;13.768;2023-02-28T01:21:54;4.13;;;2.80;;
19739;SDS011;10027;51.066;13.768;2023-02-28T01:24:22;4.47;;;2.60;;
19739;SDS011;10027;51.066;13.768;2023-02-28T01:26:49;3.53;;;2.50;;
19739;SDS011;10027;51.066;13.768;2023-02-28T01:29:16;4.63;;;2.37;;
19739;SDS011;10027;51.066;13.768;2023-02-28T01:31:43;3.97;;;2.30;;
19739;SDS011;10027;51.066;13.768;2023-02-28T01:34:10;4.37;;;2.40;;
19739;SDS011;10027;51.066;13.768;2023-02-28T01:36:38;4.50;;;2.60;;
19739;SDS011;10027;51.066;13.768;2023-02-28T01:39:05;4.43;;;2.33;;
19739;SDS011;10027;51.066;13.768;2023-02-28T01:41:33;4.53;;;2.77;;
19739;SDS011;10027;51.066;13.768;2023-02-28T01:44:02;5.57;;;2.90;;
19739;SDS011;10027;51.066;13.768;2023-02-28T01:46:30;4.63;;;2.70;;
19739;SDS011;10027;51.066;13.768;2023-02-28T01:49:00;5.33;;;3.17;;
19739;SDS011;10027;51.066;13.768;2023-02-28T01:54:09;4.73;;;2.50;;
19739;SDS011;10027;51.066;13.768;2023-02-28T01:56:41;5.50;;;2.50;;
19739;SDS011;10027;51.066;13.768;2023-02-28T01:59:12;4.97;;;2.63;;
19739;SDS011;10027;51.066;13.768;2023-02-28T02:01:40;4.90;;;2.87;;
19739;SDS011;10027;51.066;13.768;2023-02-28T02:04:07;6.87;;;2.70;;
19739;SDS011;10027;51.066;13.768;2023-02-28T02:06:40;6.03;;;2.90;;
19739;SDS011;10027;51.066;13.768;2023-02-28T02:09:08;5.97;;;2.97;;
19739;SDS011;10027;51.066;13.768;2023-02-28T02:11:35;4.83;;;2.60;;
19739;SDS011;10027;51.066;13.768;2023-02-28T02:29:47;5.13;;;3.00;;
19739;SDS011;10027;51.066;13.768;2023-02-28T02:37:19;4.50;;;2.70;;
19739;SDS011;10027;51.066;13.768;2023-02-28T02:40:09;6.73;;;3.30;;
19739;SDS011;10027;51.066;13.768;2023-02-28T02:43:01;4.40;;;2.60;;
19739;SDS011;10027;51.066;13.768;2023-02-28T02:45:35;5.23;;;2.87;;
19739;SDS011;10027;51.066;13.768;2023-02-28T02:48:05;5.93;;;2.90;;
19739;SDS011;10027;51.066;13.768;2023-02-28T02:50:38;4.07;;;2.37;;
19739;SDS011;10027;51.066;13.768;2023-02-28T02:53:05;4.27;;;2.83;;
19739;SDS011;10027;51.066;13.768;2023-02-28T02:55:36;4.33;;;2.57;;
19739;SDS011;10027;51.066;13.768;2023-02-28T02:58:04;5.00;;;3.20;;
19739;SDS011;10027;51.066;13.768;2023-02-28T03:00:34;5.77;;;3.10;;
19739;SDS011;10027;51.066;13.768;2023-02-28T03:03:03;6.40;;;3.10;;
19739;SDS011;10027;51.066;13.768;2023-02-28T03:05:47;6.30;;;3.40;;
19739;SDS011;10027;51.066;13.768;2023-02-28T03:08:14;6.80;;;3.23;;
19739;SDS011;10027;51.066;13.768;2023-02-28T03:10:42;5.23;;;3.40;;
19739;SDS011;10027;51.066;13.768;2023-02-28T03:15:44;6.10;;;3.40;;
19739;SDS011;10027;51.066;13.768;2023-02-28T03:21:23;5.53;;;3.20;;
19739;SDS011;10027;51.066;13.768;2023-02-28T03:26:30;6.70;;;3.30;;
19739;SDS011;10027;51.066;13.768;2023-02-28T03:29:13;6.60;;;3.40;;
19739;SDS011;10027;51.066;13.768;2023-02-28T03:32:05;6.47;;;3.47;;
19739;SDS011;10027;51.066;13.768;2023-02-28T03:36:59;7.50;;;3.90;;
19739;SDS011;10027;51.066;13.768;2023-02-28T03:39:51;7.43;;;3.40;;
19739;SDS011;10027;51.066;13.768;2023-02-28T03:42:18;7.07;;;3.60;;
19739;SDS011;10027;51.066;13.768;2023-02-28T03:44:56;6.50;;;3.60;;
19739;SDS011;10027;51.066;13.768;2023-02-28T03:47:26;5.57;;;3.50;;
19739;SDS011;10027;51.066;13.768;2023-02-28T03:49:59;9.20;;;3.40;;
19739;SDS011;10027;51.066;13.768;2023-02-28T03:52:28;6.33;;;3.70;;
19739;SDS011;10027;51.066;13.768;2023-02-28T03:54:59;6.80;;;3.90;;
19739;SDS011;10027;51.066;13.768;2023-02-28T03:59:59;6.83;;;3.83;;
19739;SDS011;10027;51.066;13.768;2023-02-28T04:02:32;5.97;;;3.57;;
19739;SDS011;10027;51.066;13.768;2023-02-28T04:05:00;8.60;;;4.50;;
19739;SDS011;10027;51.066;13.768;2023-02-28T04:07:30;7.97;;;3.60;;
19739;SDS011;10027;51.066;13.768;2023-02-28T04:09:57;8.87;;;4.10;;
19739;SDS011;10027;51.066;13.768;2023-02-28T04:12:24;9.03;;;4.10;;
19739;SDS011;10027;51.066;13.768;2023-02-28T04:14:52;6.53;;;3.67;;
19739;SDS011;10027;51.066;13.768;2023-02-28T04:17:19;7.43;;;4.07;;
19739;SDS011;10027;51.066;13.768;2023-02-28T04:19:46;8.20;;;4.27;;
19739;SDS011;10027;51.066;13.768;2023-02-28T04:22:13;7.37;;;4.40;;
19739;SDS011;10027;51.066;13.768;2023-02-28T04:24:40;7.90;;;4.17;;
19739;SDS011;10027;51.066;13.768;2023-02-28T04:27:08;7.00;;;4.17;;
19739;SDS011;10027;51.066;13.768;2023-02-28T04:29:35;7.27;;;3.90;;
19739;SDS011;10027;51.066;13.768;2023-02-28T04:32:02;7.50;;;4.00;;
19739;SDS011;10027;51.066;13.768;2023-02-28T04:34:30;7.63;;;4.10;;
19739;SDS011;10027;51.066;13.768;2023-02-28T04:36:58;6.93;;;3.60;;
19739;SDS011;10027;51.066;13.768;2023-02-28T04:39:41;6.67;;;3.77;;
19739;SDS011;10027;51.066;13.768;2023-02-28T04:42:09;5.83;;;3.30;;
19739;SDS011;10027;51.066;13.768;2023-02-28T04:44:36;6.33;;;3.73;;
19739;SDS011;10027;51.066;13.768;2023-02-28T04:47:03;8.23;;;3.93;;
19739;SDS011;10027;51.066;13.768;2023-02-28T04:49:31;6.00;;;3.70;;
19739;SDS011;10027;51.066;13.768;2023-02-28T04:51:58;8.00;;;3.83;;
19739;SDS011;10027;51.066;13.768;2023-02-28T04:54:25;6.50;;;3.90;;
19739;SDS011;10027;51.066;13.768;2023-02-28T04:56:52;7.53;;;4.00;;
19739;SDS011;10027;51.066;13.768;2023-02-28T04:59:20;6.23;;;3.50;;
19739;SDS011;10027;51.066;13.768;2023-02-28T05:01:48;8.27;;;4.47;;
19739;SDS011;10027;51.066;13.768;2023-02-28T05:04:15;5.97;;;3.90;;
19739;SDS011;10027;51.066;13.768;2023-02-28T05:06:43;8.77;;;4.30;;
19739;SDS011;10027;51.066;13.768;2023-02-28T05:09:10;8.37;;;4.60;;
19739;SDS011;10027;51.066;13.768;2023-02-28T05:11:38;6.80;;;4.30;;
19739;SDS011;10027;51.066;13.768;2023-02-28T05:14:06;7.37;;;4.23;;
19739;SDS011;10027;51.066;13.768;2023-02-28T05:16:34;7.53;;;4.37;;
19739;SDS011;10027;51.066;13.768;2023-02-28T05:19:01;8.70;;;4.40;;
19739;SDS011;10027;51.066;13.768;2023-02-28T05:21:35;9.77;;;4.20;;
19739;SDS011;10027;51.066;13.768;2023-02-28T05:24:05;7.17;;;3.87;;
19739;SDS011;10027;51.066;13.768;2023-02-28T05:26:34;8.13;;;4.50;;
19739;SDS011;10027;51.066;13.768;2023-02-28T05:29:01;8.23;;;3.97;;
19739;SDS011;10027;51.066;13.768;2023-02-28T05:31:29;7.40;;;4.20;;
19739;SDS011;10027;51.066;13.768;2023-02-28T05:33:56;8.93;;;4.53;;
19739;SDS011;10027;51.066;13.768;2023-02-28T05:36:23;7.97;;;4.53;;
19739;SDS011;10027;51.066;13.768;2023-02-28T05:38:51;8.70;;;4.67;;
19739;SDS011;10027;51.066;13.768;2023-02-28T05:41:18;9.33;;;4.27;;
19739;SDS011;10027;51.066;13.768;2023-02-28T05:43:46;8.53;;;4.27;;
19739;SDS011;10027;51.066;13.768;2023-02-28T05:46:13;8.73;;;4.63;;
19739;SDS011;10027;51.066;13.768;2023-02-28T05:48:41;9.77;;;5.27;;
19739;SDS011;10027;51.066;13.768;2023-02-28T05:51:08;11.53;;;4.80;;
19739;SDS011;10027;51.066;13.768;2023-02-28T05:53:36;9.77;;;4.80;;
19739;SDS011;10027;51.066;13.768;2023-02-28T05:56:03;10.97;;;5.33;;
19739;SDS011;10027;51.066;13.768;2023-02-28T05:58:30;7.93;;;4.90;;
19739;SDS011;10027;51.066;13.768;2023-02-28T06:00:58;10.73;;;5.10;;
19739;SDS011;10027;51.066;13.768;2023-02-28T06:03:25;6.97;;;4.60;;
19739;SDS011;10027;51.066;13.768;2023-02-28T06:05:53;9.37;;;4.83;;
19739;SDS011;10027;51.066;13.768;2023-02-28T06:08:21;9.80;;;4.70;;
19739;SDS011;10027;51.066;13.768;2023-02-28T06:10:48;8.37;;;4.43;;
19739;SDS011;10027;51.066;13.768;2023-02-28T06:13:15;12.30;;;5.57;;
19739;SDS011;10027;51.066;13.768;2023-02-28T06:15:42;11.37;;;5.17;;
19739;SDS011;10027;51.066;13.768;2023-02-28T06:18:09;8.77;;;4.63;;
19739;SDS011;10027;51.066;13.768;2023-02-28T06:20:36;8.70;;;5.03;;
19739;SDS011;10027;51.066;13.768;2023-02-28T06:23:03;8.10;;;4.50;;
19739;SDS011;10027;51.066;13.768;2023-02-28T06:25:30;10.43;;;5.30;;
19739;SDS011;10027;51.066;13.768;2023-02-28T06:27:57;11.00;;;5.23;;
19739;SDS011;10027;51.066;13.768;2023-02-28T06:30:25;11.83;;;4.77;;
19739;SDS011;10027;51.066;13.768;2023-02-28T06:32:54;10.20;;;5.03;;
19739;SDS011;10027;51.066;13.768;2023-02-28T06:35:21;10.23;;;5.40;;
19739;SDS011;10027;51.066;13.768;2023-02-28T06:37:48;8.33;;;4.43;;
19739;SDS011;10027;51.066;13.768;2023-02-28T06:40:16;9.47;;;5.10;;
19739;SDS011;10027;51.066;13.768;2023-02-28T06:42:43;8.47;;;5.10;;
19739;SDS011;10027;51.066;13.768;2023-02-28T06:45:10;8.87;;;5.00;;
19739;SDS011;10027;51.066;13.768;2023-02-28T06:47:38;12.00;;;5.10;;
19739;SDS011;10027;51.066;13.768;2023-02-28T06:50:07;10.87;;;4.90;;
19739;SDS011;10027;51.066;13.768;2023-02-28T06:52:34;9.40;;;4.87;;
19739;SDS011;10027;51.066;13.768;2023-02-28T06:55:05;11.43;;;5.17;;
19739;SDS011;10027;51.066;13.768;2023-02-28T06:57:33;11.53;;;4.63;;
19739;SDS011;10027;51.066;13.768;2023-02-28T07:00:02;9.03;;;4.80;;
19739;SDS011;10027;51.066;13.768;2023-02-28T07:02:30;9.37;;;4.63;;
19739;SDS011;10027;51.066;13.768;2023-02-28T07:04:57;9.07;;;5.00;;
19739;SDS011;10027;51.066;13.768;2023-02-28T07:07:25;9.63;;;5.67;;
19739;SDS011;10027;51.066;13.768;2023-02-28T07:09:52;7.80;;;4.87;;
19739;SDS011;10027;51.066;13.768;2023-02-28T07:12:19;8.47;;;4.73;;
19739;SDS011;10027;51.066;13.768;2023-02-28T07:14:46;7.17;;;4.50;;
19739;SDS011;10027;51.066;13.768;2023-02-28T07:17:13;10.70;;;5.30;;
19739;SDS011;10027;51.066;13.768;2023-02-28T07:19:40;13.57;;;5.50;;
19739;SDS011;10027;51.066;13.768;2023-02-28T07:22:07;9.80;;;5.00;;
19739;SDS011;10027;51.066;13.768;2023-02-28T07:24:34;12.50;;;5.10;;
19739;SDS011;10027;51.066;13.768;2023-02-28T07:27:02;9.77;;;5.03;;
19739;SDS011;10027;51.066;13.768;2023-02-28T07:29:29;8.83;;;5.20;;
19739;SDS011;10027;51.066;13.768;2023-02-28T07:31:56;11.13;;;5.23;;
19739;SDS011;10027;51.066;13.768;2023-02-28T07:34:23;12.33;;;5.40;;
19739;SDS011;10027;51.066;13.768;2023-02-28T07:36:52;11.57;;;5.37;;
19739;SDS011;10027;51.066;13.768;2023-02-28T07:39:20;10.17;;;5.20;;
19739;SDS011;10027;51.066;13.768;2023-02-28T07:41:47;10.27;;;5.70;;
19739;SDS011;10027;51.066;13.768;2023-02-28T07:44:14;9.70;;;4.57;;
19739;SDS011;10027;51.066;13.768;2023-02-28T07:46:41;9.80;;;5.20;;
19739;SDS011;10027;51.066;13.768;2023-02-28T07:49:09;8.67;;;4.77;;
19739;SDS011;10027;51.066;13.768;2023-02-28T07:51:36;11.40;;;5.70;;
19739;SDS011;10027;51.066;13.768;2023-02-28T07:54:03;9.70;;;5.27;;
19739;SDS011;10027;51.066;13.768;2023-02-28T07:56:30;13.00;;;5.13;;
19739;SDS011;10027;51.066;13.768;2023-02-28T07:58:58;10.27;;;5.43;;
19739;SDS011;10027;51.066;13.768;2023-02-28T08:01:25;9.17;;;5.40;;
19739;SDS011;10027;51.066;13.768;2023-02-28T08:03:52;10.77;;;5.17;;
19739;SDS011;10027;51.066;13.768;2023-02-28T08:06:21;14.27;;;5.60;;
19739;SDS011;10027;51.066;13.768;2023-02-28T08:08:49;10.53;;;5.83;;
19739;SDS011;10027;51.066;13.768;2023-02-28T08:11:16;11.17;;;5.73;;
19739;SDS011;10027;51.066;13.768;2023-02-28T08:13:44;12.07;;;5.90;;
19739;SDS011;10027;51.066;13.768;2023-02-28T08:16:12;11.90;;;6.07;;
19739;SDS011;10027;51.066;13.768;2023-02-28T08:18:48;14.90;;;6.27;;
19739;SDS011;10027;51.066;13.768;2023-02-28T08:21:16;10.10;;;5.87;;
19739;SDS011;10027;51.066;13.768;2023-02-28T08:23:43;12.60;;;6.03;;
19739;SDS011;10027;51.066;13.768;2023-02-28T08:26:10;14.70;;;6.07;;
19739;SDS011;10027;51.066;13.768;2023-02-28T08:28:37;10.30;;;6.07;;
19739;SDS011;10027;51.066;13.768;2023-02-28T08:31:14;10.80;;;6.00;;
19739;SDS011;10027;51.066;13.768;2023-02-28T08:33:41;13.60;;;6.43;;
19739;SDS011;10027;51.066;13.768;2023-02-28T08:36:10;11.07;;;6.30;;
19739;SDS011;10027;51.066;13.768;2023-02-28T08:38:38;11.70;;;6.17;;
19739;SDS011;10027;51.066;13.768;2023-02-28T08:41:07;12.17;;;6.10;;
19739;SDS011;10027;51.066;13.768;2023-02-28T08:43:35;11.97;;;6.20;;
19739;SDS011;10027;51.066;13.768;2023-02-28T08:46:02;10.20;;;6.20;;
19739;SDS011;10027;51.066;13.768;2023-02-28T08:48:30;10.20;;;6.00;;
19739;SDS011;10027;51.066;13.768;2023-02-28T08:50:59;10.83;;;5.93;;
19739;SDS011;10027;51.066;13.768;2023-02-28T08:53:34;11.37;;;6.00;;
19739;SDS011;10027;51.066;13.768;2023-02-28T08:56:03;13.57;;;5.80;;
19739;SDS011;10027;51.066;13.768;2023-02-28T08:58:30;12.13;;;5.83;;
19739;SDS011;10027;51.066;13.768;2023-02-28T09:00:57;8.27;;;5.27;;
19739;SDS011;10027;51.066;13.768;2023-02-28T09:03:24;12.17;;;5.60;;
19739;SDS011;10027;51.066;13.768;2023-02-28T09:05:56;9.23;;;5.13;;
19739;SDS011;10027;51.066;13.768;2023-02-28T09:08:26;10.60;;;5.40;;
19739;SDS011;10027;51.066;13.768;2023-02-28T09:10:53;10.37;;;5.67;;
19739;SDS011;10027;51.066;13.768;2023-02-28T09:13:23;13.30;;;5.57;;
19739;SDS011;10027;51.066;13.768;2023-02-28T09:15:51;9.30;;;5.57;;
19739;SDS011;10027;51.066;13.768;2023-02-28T09:18:18;9.27;;;5.43;;
19739;SDS011;10027;51.066;13.768;2023-02-28T09:20:46;10.07;;;5.47;;
19739;SDS011;10027;51.066;13.768;2023-02-28T09:23:13;9.53;;;5.23;;
19739;SDS011;10027;51.066;13.768;2023-02-28T09:25:45;9.90;;;5.10;;
19739;SDS011;10027;51.066;13.768;2023-02-28T09:28:12;11.07;;;5.20;;
19739;SDS011;10027;51.066;13.768;2023-02-28T09:30:41;17.43;;;5.37;;
19739;SDS011;10027;51.066;13.768;2023-02-28T09:33:09;7.73;;;5.13;;
19739;SDS011;10027;51.066;13.768;2023-02-28T09:35:36;11.40;;;5.77;;
19739;SDS011;10027;51.066;13.768;2023-02-28T09:38:03;9.03;;;5.47;;
19739;SDS011;10027;51.066;13.768;2023-02-28T09:40:31;8.90;;;5.40;;
19739;SDS011;10027;51.066;13.768;2023-02-28T09:42:58;8.07;;;5.13;;
19739;SDS011;10027;51.066;13.768;2023-02-28T09:45:33;9.63;;;5.67;;
19739;SDS011;10027;51.066;13.768;2023-02-28T09:48:03;9.87;;;5.50;;
19739;SDS011;10027;51.066;13.768;2023-02-28T09:50:38;10.70;;;4.53;;
19739;SDS011;10027;51.066;13.768;2023-02-28T09:53:13;7.67;;;4.57;;
19739;SDS011;10027;51.066;13.768;2023-02-28T09:55:43;7.47;;;4.47;;
19739;SDS011;10027;51.066;13.768;2023-02-28T09:58:56;10.13;;;5.17;;
19739;SDS011;10027;51.066;13.768;2023-02-28T10:01:04;6.47;;;4.53;;
19739;SDS011;10027;51.066;13.768;2023-02-28T10:06:14;10.97;;;4.77;;
19739;SDS011;10027;51.066;13.768;2023-02-28T10:08:50;7.27;;;4.70;;
19739;SDS011;10027;51.066;13.768;2023-02-28T10:11:19;7.70;;;5.07;;
19739;SDS011;10027;51.066;13.768;2023-02-28T10:14:00;9.93;;;5.17;;
19739;SDS011;10027;51.066;13.768;2023-02-28T10:16:34;10.47;;;4.80;;
19739;SDS011;10027;51.066;13.768;2023-02-28T10:19:06;8.33;;;4.90;;
19739;SDS011;10027;51.066;13.768;2023-02-28T10:21:39;9.40;;;4.87;;
19739;SDS011;10027;51.066;13.768;2023-02-28T10:26:47;8.20;;;5.07;;
19739;SDS011;10027;51.066;13.768;2023-02-28T10:29:14;7.27;;;5.10;;
19739;SDS011;10027;51.066;13.768;2023-02-28T10:31:42;9.07;;;5.43;;
19739;SDS011;10027;51.066;13.768;2023-02-28T10:34:10;7.63;;;5.13;;
19739;SDS011;10027;51.066;13.768;2023-02-28T10:36:38;8.47;;;5.00;;
19739;SDS011;10027;51.066;13.768;2023-02-28T10:41:54;8.57;;;5.53;;
19739;SDS011;10027;51.066;13.768;2023-02-28T10:44:23;9.13;;;5.90;;
19739;SDS011;10027;51.066;13.768;2023-02-28T10:46:51;12.77;;;5.77;;
19739;SDS011;10027;51.066;13.768;2023-02-28T10:49:27;9.17;;;5.60;;
19739;SDS011;10027;51.066;13.768;2023-02-28T10:51:56;11.67;;;5.47;;
19739;SDS011;10027;51.066;13.768;2023-02-28T10:54:29;12.13;;;6.03;;
19739;SDS011;10027;51.066;13.768;2023-02-28T10:57:05;9.05;;;6.10;;
19739;SDS011;10027;51.066;13.768;2023-02-28T10:59:33;9.80;;;5.73;;
19739;SDS011;10027;51.066;13.768;2023-02-28T11:02:00;13.33;;;5.77;;
19739;SDS011;10027;51.066;13.768;2023-02-28T11:07:17;9.77;;;5.90;;
19739;SDS011;10027;51.066;13.768;2023-02-28T11:09:48;10.97;;;5.73;;
19739;SDS011;10027;51.066;13.768;2023-02-28T11:12:23;8.93;;;6.00;;
19739;SDS011;10027;51.066;13.768;2023-02-28T11:14:53;11.00;;;5.73;;
19739;SDS011;10027;51.066;13.768;2023-02-28T11:17:22;9.67;;;6.03;;
19739;SDS011;10027;51.066;13.768;2023-02-28T11:19:51;9.93;;;5.93;;
19739;SDS011;10027;51.066;13.768;2023-02-28T11:22:23;11.50;;;6.07;;
19739;SDS011;10027;51.066;13.768;2023-02-28T11:24:52;8.37;;;5.63;;
19739;SDS011;10027;51.066;13.768;2023-02-28T11:29:59;11.97;;;6.00;;
19739;SDS011;10027;51.066;13.768;2023-02-28T11:32:27;10.63;;;5.50;;
19739;SDS011;10027;51.066;13.768;2023-02-28T11:35:17;10.53;;;5.53;;
19739;SDS011;10027;51.066;13.768;2023-02-28T11:37:48;9.40;;;5.87;;
19739;SDS011;10027;51.066;13.768;2023-02-28T11:40:16;8.93;;;6.00;;
19739;SDS011;10027;51.066;13.768;2023-02-28T11:42:50;14.80;;;6.03;;
19739;SDS011;10027;51.066;13.768;2023-02-28T11:45:22;7.57;;;5.37;;
19739;SDS011;10027;51.066;13.768;2023-02-28T11:53:26;10.07;;;6.03;;
19739;SDS011;10027;51.066;13.768;2023-02-28T11:56:00;9.17;;;5.53;;
19739;SDS011;10027;51.066;13.768;2023-02-28T12:01:24;10.90;;;5.80;;
19739;SDS011;10027;51.066;13.768;2023-02-28T12:06:41;8.70;;;5.73;;
19739;SDS011;10027;51.066;13.768;2023-02-28T12:11:56;8.47;;;5.50;;
19739;SDS011;10027;51.066;13.768;2023-02-28T12:20:05;12.47;;;6.40;;
19739;SDS011;10027;51.066;13.768;2023-02-28T12:22:38;9.07;;;5.83;;
19739;SDS011;10027;51.066;13.768;2023-02-28T12:28:11;8.87;;;5.83;;
19739;SDS011;10027;51.066;13.768;2023-02-28T12:30:41;9.57;;;6.27;;
19739;SDS011;10027;51.066;13.768;2023-02-28T12:33:12;9.83;;;6.30;;
19739;SDS011;10027;51.066;13.768;2023-02-28T12:35:45;9.67;;;5.93;;
19739;SDS011;10027;51.066;13.768;2023-02-28T12:38:14;12.30;;;6.20;;
19739;SDS011;10027;51.066;13.768;2023-02-28T12:40:56;10.20;;;6.30;;
19739;SDS011;10027;51.066;13.768;2023-02-28T12:43:27;10.10;;;6.10;;
19739;SDS011;10027;51.066;13.768;2023-02-28T12:48:42;13.00;;;6.47;;
19739;SDS011;10027;51.066;13.768;2023-02-28T12:51:10;9.50;;;5.93;;
19739;SDS011;10027;51.066;13.768;2023-02-28T13:01:37;9.90;;;6.00;;
19739;SDS011;10027;51.066;13.768;2023-02-28T13:09:18;12.33;;;6.40;;
19739;SDS011;10027;51.066;13.768;2023-02-28T13:11:52;10.53;;;6.23;;
19739;SDS011;10027;51.066;13.768;2023-02-28T13:14:23;10.90;;;6.17;;
19739;SDS011;10027;51.066;13.768;2023-02-28T13:16:55;10.47;;;5.80;;
19739;SDS011;10027;51.066;13.768;2023-02-28T13:19:25;10.00;;;6.20;;
19739;SDS011;10027;51.066;13.768;2023-02-28T13:21:53;10.07;;;6.10;;
19739;SDS011;10027;51.066;13.768;2023-02-28T13:29:39;11.17;;;6.37;;
19739;SDS011;10027;51.066;13.768;2023-02-28T13:34:36;12.13;;;6.83;;
19739;SDS011;10027;51.066;13.768;2023-02-28T13:37:49;12.23;;;6.70;;
19739;SDS011;10027;51.066;13.768;2023-02-28T13:39:52;12.33;;;7.27;;
19739;SDS011;10027;51.066;13.768;2023-02-28T13:47:39;12.50;;;6.57;;
19739;SDS011;10027;51.066;13.768;2023-02-28T13:50:28;12.40;;;6.63;;
19739;SDS011;10027;51.066;13.768;2023-02-28T13:55:26;12.30;;;6.70;;
19739;SDS011;10027;51.066;13.768;2023-02-28T14:05:32;13.50;;;6.87;;
19739;SDS011;10027;51.066;13.768;2023-02-28T14:08:04;13.63;;;7.20;;
19739;SDS011;10027;51.066;13.768;2023-02-28T14:10:33;11.67;;;7.13;;
19739;SDS011;10027;51.066;13.768;2023-02-28T14:13:12;11.00;;;6.10;;
19739;SDS011;10027;51.066;13.768;2023-02-28T14:20:44;10.83;;;6.57;;
19739;SDS011;10027;51.066;13.768;2023-02-28T14:23:18;15.63;;;7.37;;
19739;SDS011;10027;51.066;13.768;2023-02-28T14:28:28;14.40;;;7.17;;
19739;SDS011;10027;51.066;13.768;2023-02-28T14:31:02;12.50;;;6.37;;
19739;SDS011;10027;51.066;13.768;2023-02-28T14:36:06;13.90;;;6.73;;
19739;SDS011;10027;51.066;13.768;2023-02-28T14:38:40;15.63;;;6.87;;
19739;SDS011;10027;51.066;13.768;2023-02-28T14:41:19;11.63;;;6.87;;
19739;SDS011;10027;51.066;13.768;2023-02-28T14:43:51;11.77;;;6.60;;
19739;SDS011;10027;51.066;13.768;2023-02-28T14:46:18;12.40;;;6.13;;
19739;SDS011;10027;51.066;13.768;2023-02-28T14:48:47;13.70;;;6.90;;
19739;SDS011;10027;51.066;13.768;2023-02-28T14:51:19;16.53;;;7.63;;
19739;SDS011;10027;51.066;13.768;2023-02-28T14:53:48;14.30;;;6.80;;
19739;SDS011;10027;51.066;13.768;2023-02-28T14:56:33;10.50;;;6.80;;
19739;SDS011;10027;51.066;13.768;2023-02-28T14:59:02;12.67;;;7.03;;
19739;SDS011;10027;51.066;13.768;2023-02-28T15:01:29;13.27;;;6.90;;
19739;SDS011;10027;51.066;13.768;2023-02-28T15:04:01;12.10;;;6.77;;
19739;SDS011;10027;51.066;13.768;2023-02-28T15:06:28;16.07;;;6.20;;
19739;SDS011;10027;51.066;13.768;2023-02-28T15:09:09;12.13;;;6.73;;
19739;SDS011;10027;51.066;13.768;2023-02-28T15:11:36;11.30;;;6.50;;
19739;SDS011;10027;51.066;13.768;2023-02-28T15:14:04;11.90;;;7.20;;
19739;SDS011;10027;51.066;13.768;2023-02-28T15:16:32;11.97;;;6.63;;
19739;SDS011;10027;51.066;13.768;2023-02-28T15:19:02;10.57;;;6.60;;
19739;SDS011;10027;51.066;13.768;2023-02-28T15:21:33;16.13;;;7.40;;
19739;SDS011;10027;51.066;13.768;2023-02-28T15:26:32;12.27;;;6.87;;
19739;SDS011;10027;51.066;13.768;2023-02-28T15:29:01;14.03;;;6.90;;
19739;SDS011;10027;51.066;13.768;2023-02-28T15:31:34;10.87;;;6.70;;
19739;SDS011;10027;51.066;13.768;2023-02-28T15:34:22;13.93;;;6.97;;
19739;SDS011;10027;51.066;13.768;2023-02-28T15:36:53;11.27;;;6.50;;
19739;SDS011;10027;51.066;13.768;2023-02-28T15:39:24;16.00;;;7.40;;
19739;SDS011;10027;51.066;13.768;2023-02-28T15:42:09;13.50;;;6.87;;
19739;SDS011;10027;51.066;13.768;2023-02-28T15:44:37;14.50;;;7.03;;
19739;SDS011;10027;51.066;13.768;2023-02-28T15:47:04;12.70;;;7.30;;
19739;SDS011;10027;51.066;13.768;2023-02-28T15:49:40;14.57;;;7.23;;
19739;SDS011;10027;51.066;13.768;2023-02-28T15:52:19;14.33;;;6.90;;
19739;SDS011;10027;51.066;13.768;2023-02-28T15:54:46;13.67;;;7.10;;
19739;SDS011;10027;51.066;13.768;2023-02-28T15:57:19;11.63;;;6.30;;
19739;SDS011;10027;51.066;13.768;2023-02-28T15:59:57;12.77;;;6.40;;
19739;SDS011;10027;51.066;13.768;2023-02-28T16:02:32;12.00;;;6.50;;
19739;SDS011;10027;51.066;13.768;2023-02-28T16:07:37;14.23;;;6.53;;
19739;SDS011;10027;51.066;13.768;2023-02-28T16:10:05;11.33;;;6.57;;
19739;SDS011;10027;51.066;13.768;2023-02-28T16:12:33;11.00;;;7.10;;
19739;SDS011;10027;51.066;13.768;2023-02-28T16:15:02;13.23;;;7.03;;
19739;SDS011;10027;51.066;13.768;2023-02-28T16:17:33;14.93;;;6.70;;
19739;SDS011;10027;51.066;13.768;2023-02-28T16:20:00;11.83;;;6.47;;
19739;SDS011;10027;51.066;13.768;2023-02-28T16:22:29;13.97;;;7.13;;
19739;SDS011;10027;51.066;13.768;2023-02-28T16:24:56;16.17;;;7.07;;
19739;SDS011;10027;51.066;13.768;2023-02-28T16:27:33;16.67;;;7.30;;
19739;SDS011;10027;51.066;13.768;2023-02-28T16:30:02;22.20;;;6.93;;
19739;SDS011;10027;51.066;13.768;2023-02-28T16:32:30;17.03;;;7.50;;
19739;SDS011;10027;51.066;13.768;2023-02-28T16:34:58;14.57;;;6.90;;
19739;SDS011;10027;51.066;13.768;2023-02-28T16:37:26;11.97;;;6.73;;
19739;SDS011;10027;51.066;13.768;2023-02-28T16:39:53;17.90;;;7.27;;
19739;SDS011;10027;51.066;13.768;2023-02-28T16:42:22;13.17;;;7.13;;
19739;SDS011;10027;51.066;13.768;2023-02-28T16:44:51;14.90;;;7.60;;
19739;SDS011;10027;51.066;13.768;2023-02-28T16:47:18;19.27;;;8.63;;
19739;SDS011;10027;51.066;13.768;2023-02-28T16:49:46;16.57;;;8.20;;